createdAt,value
2023-01-08T00:02:05.664Z,101999.56
2023-01-08T00:05:08.625Z,101998.94
2023-01-08T00:08:11.600Z,101988.03
2023-01-08T00:11:14.833Z,101991.75
2023-01-08T00:14:16.969Z,101976.34
2023-01-08T00:17:19.306Z,101972.13
2023-01-08T00:20:22.239Z,101997.63
2023-01-08T00:23:24.863Z,102007.06
2023-01-08T00:26:27.804Z,101991.88
2023-01-08T00:29:31.098Z,101999.38
2023-01-08T00:32:36.062Z,102008.53
2023-01-08T00:35:41.398Z,102006.56
2023-01-08T00:38:46.933Z,101997.31
2023-01-08T00:41:50.181Z,101988.03
2023-01-08T00:44:54.139Z,102011.94
2023-01-08T00:47:58.954Z,102018.06
2023-01-08T00:51:03.876Z,102008.72
2023-01-08T00:54:06.657Z,102002.69
2023-01-08T00:57:08.650Z,102005.44
2023-01-08T01:00:14.697Z,102009.31
2023-01-08T01:03:18.305Z,102012.47
2023-01-08T01:06:23.163Z,102003.66
2023-01-08T01:09:25.381Z,102006.25
2023-01-08T01:12:28.270Z,102010.06
2023-01-08T01:15:30.761Z,102008.91
2023-01-08T01:18:32.856Z,101993.88
2023-01-08T01:21:48.084Z,101998.72
2023-01-08T01:24:51.026Z,101997.84
2023-01-08T01:27:56.869Z,102003.34
2023-01-08T01:30:59.518Z,101992.00
2023-01-08T01:34:02.153Z,101971.59
2023-01-08T01:37:05.339Z,101998.69
2023-01-08T01:40:09.788Z,101994.78
2023-01-08T01:43:15.131Z,101977.50
2023-01-08T01:46:39.993Z,102000.13
2023-01-08T01:49:54.005Z,101972.84
2023-01-08T01:53:08.892Z,101987.00
2023-01-08T01:56:12.048Z,101981.44
2023-01-08T01:59:15.135Z,101973.00
2023-01-08T02:02:17.404Z,101975.34
2023-01-08T02:05:21.263Z,101971.78
2023-01-08T02:08:35.463Z,101981.25
2023-01-08T02:12:24.173Z,101981.03
2023-01-08T02:15:49.397Z,101979.44
2023-01-08T02:18:59.371Z,101982.25
2023-01-08T02:22:45.886Z,101980.84
2023-01-08T02:26:15.166Z,101971.13
2023-01-08T02:29:23.788Z,101977.53
2023-01-08T02:32:28.066Z,101985.19
2023-01-08T02:35:49.110Z,101973.53
2023-01-08T02:39:12.253Z,101971.50
2023-01-08T02:42:36.138Z,101972.19
2023-01-08T02:45:55.815Z,101947.66
2023-01-08T02:49:10.515Z,101946.63
2023-01-08T02:52:16.112Z,101962.00
2023-01-08T02:55:21.184Z,101967.03
2023-01-08T02:58:25.610Z,101952.31
2023-01-08T03:01:30.239Z,101961.63
2023-01-08T03:04:40.444Z,101945.94
2023-01-08T03:07:43.776Z,101965.69
2023-01-08T03:10:52.249Z,101959.75
2023-01-08T03:14:02.868Z,101943.06
2023-01-08T03:17:20.395Z,101979.84
2023-01-08T03:20:26.387Z,101982.38
2023-01-08T03:23:31.850Z,101963.19
2023-01-08T03:26:37.485Z,101963.22
2023-01-08T03:29:40.649Z,101955.66
2023-01-08T03:32:45.386Z,101967.84
2023-01-08T03:35:50.802Z,101971.56
2023-01-08T03:39:12.649Z,101957.78
2023-01-08T03:42:18.211Z,101972.41
2023-01-08T03:45:22.307Z,101973.13
2023-01-08T03:48:27.572Z,101967.75
2023-01-08T03:51:30.224Z,101978.81
2023-01-08T03:54:34.949Z,101970.56
2023-01-08T03:57:37.099Z,101972.28
2023-01-08T04:00:39.439Z,101963.34
2023-01-08T04:03:41.492Z,101948.88
2023-01-08T04:06:43.710Z,101952.88
2023-01-08T04:09:46.046Z,101958.13
2023-01-08T04:12:48.127Z,101964.38
2023-01-08T04:15:51.847Z,101959.28
2023-01-08T04:18:54.249Z,101944.63
2023-01-08T04:21:56.259Z,101945.22
2023-01-08T04:24:58.426Z,101926.28
2023-01-08T04:28:00.504Z,101928.94
2023-01-08T04:31:10.013Z,101929.34
2023-01-08T04:34:12.280Z,101937.94
2023-01-08T04:37:14.328Z,101946.38
2023-01-08T04:40:16.543Z,101932.91
2023-01-08T04:43:18.525Z,101936.13
2023-01-08T04:46:20.675Z,101944.03
2023-01-08T04:49:22.893Z,101924.16
2023-01-08T04:52:25.531Z,101939.59
2023-01-08T04:55:27.770Z,101949.66
2023-01-08T04:58:29.988Z,101947.97
2023-01-08T05:01:32.494Z,101929.22
2023-01-08T05:04:35.032Z,101945.69
2023-01-08T05:07:38.198Z,101940.25
2023-01-08T05:10:40.656Z,101936.19
2023-01-08T05:13:42.830Z,101932.38
2023-01-08T05:16:44.920Z,101935.44
2023-01-08T05:19:47.118Z,101938.03
2023-01-08T05:22:49.149Z,101932.22
2023-01-08T05:25:51.226Z,101947.09
2023-01-08T05:28:53.371Z,101933.38
2023-01-08T05:31:56.944Z,101964.63
2023-01-08T05:34:59.393Z,101963.09
2023-01-08T05:38:03.189Z,101957.56
2023-01-08T05:41:06.280Z,101966.81
2023-01-08T05:44:10.294Z,101967.50
2023-01-08T05:47:13.690Z,101988.25
2023-01-08T05:50:15.913Z,101995.31
2023-01-08T05:53:17.945Z,101999.28
2023-01-08T05:56:22.563Z,102001.25
2023-01-08T05:59:24.851Z,102004.78
2023-01-08T06:02:27.639Z,101998.13
2023-01-08T06:05:31.319Z,101999.25
2023-01-08T06:08:34.069Z,102002.41
2023-01-08T06:11:36.103Z,101995.72
2023-01-08T06:14:39.196Z,102018.47
2023-01-08T06:17:42.170Z,102020.06
2023-01-08T06:20:44.315Z,102005.50
2023-01-08T06:23:46.285Z,101998.50
2023-01-08T06:26:48.222Z,102020.06
2023-01-08T06:29:50.276Z,102033.00
2023-01-08T06:32:57.116Z,102020.06
2023-01-08T06:36:05.144Z,102023.09
2023-01-08T06:39:08.353Z,102025.91
2023-01-08T06:42:10.580Z,102022.31
2023-01-08T06:45:13.035Z,102016.25
2023-01-08T06:48:15.113Z,102017.88
2023-01-08T06:51:17.248Z,102017.38
2023-01-08T06:54:19.725Z,102015.75
2023-01-08T06:57:22.159Z,102018.56
2023-01-08T07:00:26.330Z,102014.56
2023-01-08T07:03:29.911Z,102012.72
2023-01-08T07:06:33.558Z,102025.13
2023-01-08T07:09:35.960Z,102007.91
2023-01-08T07:12:37.995Z,102021.69
2023-01-08T07:15:41.501Z,102017.16
2023-01-08T07:18:44.986Z,102034.91
2023-01-08T07:21:47.335Z,102031.34
2023-01-08T07:24:49.588Z,102035.25
2023-01-08T07:27:52.051Z,102024.72
2023-01-08T07:30:54.299Z,102039.13
2023-01-08T07:33:56.557Z,102025.75
2023-01-08T07:36:58.591Z,102033.88
2023-01-08T07:40:00.710Z,102034.91
2023-01-08T07:43:04.919Z,102025.63
2023-01-08T07:46:08.169Z,102021.41
2023-01-08T07:49:10.681Z,102031.31
2023-01-08T07:52:12.728Z,102032.22
2023-01-08T07:55:14.961Z,102033.44
2023-01-08T07:58:17.382Z,102029.44
2023-01-08T08:01:19.591Z,102038.16
2023-01-08T08:04:21.692Z,102027.25
2023-01-08T08:07:23.762Z,102030.13
2023-01-08T08:10:25.862Z,102019.47
2023-01-08T08:13:28.155Z,102031.13
2023-01-08T08:16:30.197Z,102026.88
2023-01-08T08:19:32.301Z,102038.75
2023-01-08T08:22:34.316Z,102019.41
2023-01-08T08:25:37.080Z,102035.22
2023-01-08T08:28:42.272Z,102036.88
2023-01-08T08:31:44.574Z,102043.22
2023-01-08T08:34:46.532Z,102044.84
2023-01-08T08:37:48.831Z,102047.94
2023-01-08T08:40:51.264Z,102036.06
2023-01-08T08:43:53.674Z,102006.06
2023-01-08T08:46:55.699Z,102020.78
2023-01-08T08:49:57.913Z,102008.56
2023-01-08T08:53:00.887Z,102021.16
2023-01-08T08:56:03.126Z,102010.38
2023-01-08T08:59:05.161Z,102028.09
2023-01-08T09:02:07.677Z,102017.00
2023-01-08T09:05:10.920Z,102014.13
2023-01-08T09:08:13.269Z,102022.00
2023-01-08T09:11:16.525Z,102024.72
2023-01-08T09:14:18.804Z,102013.63
2023-01-08T09:17:22.366Z,102018.09
2023-01-08T09:20:29.820Z,102010.59
2023-01-08T09:23:32.771Z,102014.34
2023-01-08T09:26:34.901Z,101999.19
2023-01-08T09:29:36.930Z,101996.97
2023-01-08T09:32:39.132Z,102005.16
2023-01-08T09:35:44.830Z,102001.56
2023-01-08T09:38:46.818Z,101982.16
2023-01-08T09:41:50.037Z,101979.13
2023-01-08T09:44:55.633Z,101975.56
2023-01-08T09:48:01.306Z,101971.66
2023-01-08T09:51:06.542Z,101984.91
2023-01-08T09:54:15.744Z,101961.97
2023-01-08T09:57:20.503Z,101972.31
2023-01-08T10:00:29.869Z,101978.09
2023-01-08T10:03:43.694Z,101982.16
2023-01-08T10:07:02.394Z,101957.03
2023-01-08T10:10:07.047Z,101951.84
2023-01-08T10:13:14.644Z,101965.47
2023-01-08T10:16:33.560Z,101966.81
2023-01-08T10:19:38.932Z,101972.91
2023-01-08T10:22:41.408Z,101966.31
2023-01-08T10:25:55.342Z,101960.72
2023-01-08T10:29:17.499Z,101966.16
2023-01-08T10:32:39.820Z,101961.56
2023-01-08T10:35:43.462Z,101942.88
2023-01-08T10:38:56.438Z,101957.97
2023-01-08T10:42:05.884Z,101957.66
2023-01-08T10:45:19.109Z,101962.50
2023-01-08T10:48:21.424Z,101951.53
2023-01-08T10:51:25.981Z,101960.97
2023-01-08T10:54:41.112Z,101950.66
2023-01-08T10:57:53.187Z,101949.47
2023-01-08T11:00:57.736Z,101938.75
2023-01-08T11:04:02.181Z,101931.13
2023-01-08T11:07:06.856Z,101929.56
2023-01-08T11:10:30.369Z,101945.78
2023-01-08T11:13:32.663Z,101944.22
2023-01-08T11:16:39.793Z,101954.28
2023-01-08T11:19:41.956Z,101928.00
2023-01-08T11:22:44.062Z,101928.16
2023-01-08T11:26:31.985Z,101918.09
2023-01-08T11:30:05.081Z,101943.91
2023-01-08T11:33:34.204Z,101940.00
2023-01-08T11:42:04.551Z,101951.03
2023-01-08T11:45:38.844Z,101952.25
2023-01-08T11:49:02.043Z,101954.38
2023-01-08T11:52:56.490Z,101943.34
2023-01-08T11:56:37.593Z,101937.25
2023-01-08T11:59:55.576Z,101936.81
2023-01-08T12:03:11.544Z,101946.28
2023-01-08T12:06:45.259Z,101932.97
2023-01-08T12:09:58.150Z,101936.06
2023-01-08T12:13:22.996Z,101915.03
2023-01-08T12:17:03.050Z,101908.56
2023-01-08T12:20:36.405Z,101912.47
2023-01-08T12:23:44.241Z,101907.91
2023-01-08T12:27:07.644Z,101899.59
2023-01-08T12:30:18.909Z,101901.97
2023-01-08T12:33:35.013Z,101894.84
2023-01-08T12:36:41.824Z,101895.69
2023-01-08T12:39:53.463Z,101903.84
2023-01-08T12:43:01.605Z,101879.63
2023-01-08T12:46:06.232Z,101867.25
2023-01-08T12:49:11.563Z,101883.03
2023-01-08T12:52:24.169Z,101875.06
2023-01-08T12:55:42.767Z,101885.06
2023-01-08T12:58:45.230Z,101891.84
2023-01-08T13:02:14.423Z,101880.63
2023-01-08T13:05:19.384Z,101888.59
2023-01-08T13:08:52.938Z,101889.63
2023-01-08T13:12:03.223Z,101890.00
2023-01-08T13:15:07.004Z,101891.16
2023-01-08T13:18:21.219Z,101904.38
2023-01-08T13:21:31.318Z,101901.00
2023-01-08T13:24:41.258Z,101896.91
2023-01-08T13:27:44.962Z,101901.34
2023-01-08T13:30:50.362Z,101882.00
2023-01-08T13:33:52.915Z,101879.19
2023-01-08T13:36:57.509Z,101885.41
2023-01-08T13:39:59.659Z,101873.25
2023-01-08T13:43:06.454Z,101887.22
2023-01-08T13:46:23.022Z,101880.53
2023-01-08T13:49:57.192Z,101865.72
2023-01-08T13:53:04.096Z,101871.09
2023-01-08T13:56:09.177Z,101866.75
2023-01-08T13:59:42.953Z,101877.06
2023-01-08T14:02:50.596Z,101879.56
2023-01-08T14:06:06.604Z,101889.91
2023-01-08T14:09:35.272Z,101860.13
2023-01-08T14:12:37.486Z,101870.31
2023-01-08T14:15:39.856Z,101878.06
2023-01-08T14:18:44.173Z,101868.44
2023-01-08T14:21:57.390Z,101871.66
2023-01-08T14:25:04.087Z,101873.53
2023-01-08T14:28:12.184Z,101868.19
2023-01-08T14:31:31.505Z,101871.97
2023-01-08T14:34:39.883Z,101858.63
2023-01-08T14:37:42.439Z,101862.38
2023-01-08T14:41:04.983Z,101868.22
2023-01-08T14:44:14.205Z,101871.38
2023-01-08T14:47:22.140Z,101873.28
2023-01-08T14:50:24.369Z,101880.41
2023-01-08T14:53:34.089Z,101876.44
2023-01-08T14:56:37.656Z,101871.19
2023-01-08T14:59:40.015Z,101865.97
2023-01-08T15:02:49.373Z,101845.78
2023-01-08T15:05:54.615Z,101870.22
2023-01-08T15:08:58.529Z,101879.22
2023-01-08T15:12:04.087Z,101861.00
2023-01-08T15:15:22.442Z,101865.75
2023-01-08T15:18:25.516Z,101871.25
2023-01-08T15:21:27.684Z,101864.72
2023-01-08T15:24:37.130Z,101867.81
2023-01-08T15:27:40.152Z,101835.22
2023-01-08T15:30:47.565Z,101847.59
2023-01-08T15:34:00.152Z,101841.03
2023-01-08T15:37:02.743Z,101849.28
2023-01-08T15:40:05.734Z,101845.22
2023-01-08T15:43:12.759Z,101851.78
2023-01-08T15:46:25.321Z,101831.63
2023-01-08T15:49:41.067Z,101854.50
2023-01-08T15:52:43.868Z,101859.41
2023-01-08T15:55:48.339Z,101844.44
2023-01-08T15:58:50.414Z,101839.41
2023-01-08T16:01:53.274Z,101857.41
2023-01-08T16:04:57.196Z,101847.97
2023-01-08T16:07:59.844Z,101864.88
2023-01-08T16:11:02.002Z,101864.56
2023-01-08T16:14:04.987Z,101832.53
2023-01-08T16:17:11.091Z,101855.19
2023-01-08T16:20:15.775Z,101845.69
2023-01-08T16:23:21.751Z,101849.25
2023-01-08T16:26:25.093Z,101837.69
2023-01-08T16:29:30.091Z,101845.00
2023-01-08T16:32:32.785Z,101848.94
2023-01-08T16:36:57.912Z,101861.31
2023-01-08T16:40:02.429Z,101857.13
2023-01-08T16:43:08.036Z,101840.78
2023-01-08T16:46:16.670Z,101845.84
2023-01-08T16:50:17.365Z,101837.25
2023-01-08T16:53:21.249Z,101828.28
2023-01-08T16:56:24.537Z,101829.63
2023-01-08T16:59:27.682Z,101841.50
2023-01-08T17:02:42.344Z,101835.94
2023-01-08T17:05:47.295Z,101833.53
2023-01-08T17:08:51.949Z,101847.66
2023-01-08T17:11:57.320Z,101849.66
2023-01-08T17:15:03.699Z,101849.16
2023-01-08T17:18:06.360Z,101850.16
2023-01-08T17:21:09.964Z,101855.69
2023-01-08T17:24:12.202Z,101844.59
2023-01-08T17:27:14.241Z,101856.41
2023-01-08T17:30:16.532Z,101855.38
2023-01-08T17:33:18.853Z,101846.78
2023-01-08T17:36:37.668Z,101852.59
2023-01-08T17:39:49.258Z,101844.38
2023-01-08T17:42:51.335Z,101835.47
2023-01-08T17:45:56.515Z,101847.53
2023-01-08T17:49:00.541Z,101841.88
2023-01-08T17:52:02.778Z,101840.50
2023-01-08T17:55:05.299Z,101802.22
2023-01-08T17:58:09.727Z,101810.97
2023-01-08T18:01:14.630Z,101833.72
2023-01-08T18:04:17.438Z,101827.69
2023-01-08T18:07:19.570Z,101831.56
2023-01-08T18:10:21.615Z,101831.13
2023-01-08T18:13:23.978Z,101836.75
2023-01-08T18:16:27.222Z,101825.16
2023-01-08T18:19:29.236Z,101844.22
2023-01-08T18:22:31.694Z,101829.25
2023-01-08T18:25:45.046Z,101831.13
2023-01-08T18:28:48.486Z,101832.59
2023-01-08T18:31:51.490Z,101832.25
2023-01-08T18:34:53.742Z,101830.84
2023-01-08T18:37:57.169Z,101817.84
2023-01-08T18:41:02.211Z,101829.75
2023-01-08T18:44:06.845Z,101836.59
2023-01-08T18:47:09.274Z,101817.06
2023-01-08T18:50:12.022Z,101824.91
2023-01-08T18:53:14.248Z,101820.97
2023-01-08T18:56:35.563Z,101804.28
2023-01-08T18:59:38.121Z,101824.69
2023-01-08T19:02:40.425Z,101825.19
2023-01-08T19:05:43.233Z,101837.88
2023-01-08T19:08:46.423Z,101824.50
2023-01-08T19:11:48.632Z,101828.09
2023-01-08T19:14:51.114Z,101827.56
2023-01-08T19:17:53.224Z,101800.09
2023-01-08T19:20:56.438Z,101822.50
2023-01-08T19:24:00.144Z,101828.59
2023-01-08T19:27:02.225Z,101826.41
2023-01-08T19:30:07.423Z,101824.56
2023-01-08T19:33:10.850Z,101816.44
2023-01-08T19:36:15.966Z,101810.66
2023-01-08T19:39:22.809Z,101810.88
2023-01-08T19:42:45.816Z,101810.13
2023-01-08T19:45:47.890Z,101804.53
2023-01-08T19:48:50.325Z,101824.53
2023-01-08T19:51:53.086Z,101810.47
2023-01-08T19:54:57.834Z,101789.28
2023-01-08T19:58:00.124Z,101816.22
2023-01-08T20:01:10.116Z,101798.75
2023-01-08T20:04:16.973Z,101779.28
2023-01-08T20:07:28.844Z,101787.91
2023-01-08T20:10:31.736Z,101788.06
2023-01-08T20:13:37.113Z,101786.72
2023-01-08T20:16:40.320Z,101806.56
2023-01-08T20:19:46.894Z,101792.31
2023-01-08T20:22:50.986Z,101793.84
2023-01-08T20:25:56.376Z,101764.94
2023-01-08T20:28:59.823Z,101791.91
2023-01-08T20:32:05.370Z,101789.34
2023-01-08T20:35:08.508Z,101788.03
2023-01-08T20:38:12.034Z,101770.78
2023-01-08T20:41:14.751Z,101761.59
2023-01-08T20:44:18.995Z,101773.13
2023-01-08T20:47:23.260Z,101753.53
2023-01-08T20:50:25.682Z,101750.13
2023-01-08T20:53:33.052Z,101741.84
2023-01-08T20:56:42.335Z,101759.28
2023-01-08T20:59:52.703Z,101731.28
2023-01-08T21:03:04.385Z,101732.88
2023-01-08T21:06:15.846Z,101737.75
2023-01-08T21:09:21.026Z,101715.84
2023-01-08T21:12:23.430Z,101754.81
2023-01-08T21:15:31.748Z,101748.50
2023-01-08T21:18:34.604Z,101755.31
2023-01-08T21:21:40.775Z,101717.94
2023-01-08T21:24:44.360Z,101746.75
2023-01-08T21:27:47.648Z,101757.75
2023-01-08T21:30:54.788Z,101729.63
2023-01-08T21:33:58.712Z,101756.06
2023-01-08T21:37:02.635Z,101739.25
2023-01-08T21:40:06.842Z,101740.94
2023-01-08T21:43:30.873Z,101730.59
2023-01-08T21:46:34.709Z,101726.19
2023-01-08T21:49:38.830Z,101750.69
2023-01-08T21:53:00.104Z,101751.72
2023-01-08T21:56:04.218Z,101748.69
2023-01-08T21:59:06.280Z,101727.03
2023-01-08T22:02:19.601Z,101723.78
2023-01-08T22:05:21.758Z,101726.50
2023-01-08T22:08:24.101Z,101700.22
2023-01-08T22:11:35.969Z,101703.94
2023-01-08T22:14:57.687Z,101671.06
2023-01-08T22:18:02.687Z,101700.59
2023-01-08T22:21:13.505Z,101712.56
2023-01-08T22:24:18.447Z,101683.22
2023-01-08T22:27:29.285Z,101639.09
2023-01-08T22:30:31.888Z,101684.06
2023-01-08T22:33:34.526Z,101708.66
2023-01-08T22:36:37.069Z,101695.75
2023-01-08T22:39:40.172Z,101675.06
2023-01-08T22:42:45.950Z,101681.69
2023-01-08T22:46:00.598Z,101685.09
2023-01-08T22:49:52.727Z,101676.09
2023-01-08T22:52:54.857Z,101662.03
2023-01-08T22:56:02.045Z,101672.09
2023-01-08T23:02:44.866Z,101684.41
2023-01-08T23:05:47.301Z,101652.44
2023-01-08T23:09:08.325Z,101659.88
2023-01-08T23:17:19.595Z,101636.31
2023-01-08T23:21:12.123Z,101671.69
2023-01-08T23:24:43.583Z,101673.69
2023-01-08T23:27:48.275Z,101670.13
2023-01-08T23:30:50.564Z,101661.50
2023-01-08T23:33:54.776Z,101657.19
2023-01-08T23:36:58.803Z,101644.81
2023-01-08T23:40:01.141Z,101645.66
2023-01-08T23:43:05.873Z,101635.13
2023-01-08T23:46:09.498Z,101628.91
2023-01-08T23:49:12.103Z,101633.41
2023-01-08T23:52:15.444Z,101633.94
2023-01-08T23:55:17.752Z,101620.38
2023-01-08T23:58:21.422Z,101617.69
